sensor_id;sensor_type;location;lat;lon;timestamp;P1;durP1;ratioP1;P2;durP2;ratioP2
18224;SDS011;9237;48.590;8.854;2024-01-30T00:01:02;1.10;;;1.10;;
18224;SDS011;9237;48.590;8.854;2024-01-30T00:03:29;1.00;;;1.00;;
18224;SDS011;9237;48.590;8.854;2024-01-30T00:05:55;1.00;;;1.00;;
18224;SDS011;9237;48.590;8.854;2024-01-30T00:08:23;1.00;;;1.00;;
18224;SDS011;9237;48.590;8.854;2024-01-30T00:10:50;1.10;;;1.10;;
18224;SDS011;9237;48.590;8.854;2024-01-30T00:13:17;1.10;;;1.10;;
18224;SDS011;9237;48.590;8.854;2024-01-30T00:15:45;1.03;;;1.03;;
18224;SDS011;9237;48.590;8.854;2024-01-30T00:18:11;0.90;;;0.90;;
18224;SDS011;9237;48.590;8.854;2024-01-30T00:20:38;1.00;;;1.00;;
18224;SDS011;9237;48.590;8.854;2024-01-30T00:23:05;1.10;;;1.10;;
18224;SDS011;9237;48.590;8.854;2024-01-30T00:25:33;1.03;;;1.03;;
18224;SDS011;9237;48.590;8.854;2024-01-30T00:28:00;1.00;;;1.00;;
18224;SDS011;9237;48.590;8.854;2024-01-30T00:30:27;1.00;;;1.00;;
18224;SDS011;9237;48.590;8.854;2024-01-30T00:32:54;0.90;;;0.90;;
18224;SDS011;9237;48.590;8.854;2024-01-30T00:35:20;0.90;;;0.90;;
18224;SDS011;9237;48.590;8.854;2024-01-30T00:37:48;1.00;;;1.00;;
18224;SDS011;9237;48.590;8.854;2024-01-30T00:40:15;0.90;;;0.90;;
18224;SDS011;9237;48.590;8.854;2024-01-30T00:42:44;1.00;;;1.00;;
18224;SDS011;9237;48.590;8.854;2024-01-30T00:45:13;1.00;;;1.00;;
18224;SDS011;9237;48.590;8.854;2024-01-30T00:47:40;0.90;;;0.90;;
18224;SDS011;9237;48.590;8.854;2024-01-30T00:50:07;0.90;;;0.90;;
18224;SDS011;9237;48.590;8.854;2024-01-30T00:52:34;1.00;;;1.00;;
18224;SDS011;9237;48.590;8.854;2024-01-30T00:55:01;1.00;;;1.00;;
18224;SDS011;9237;48.590;8.854;2024-01-30T00:57:28;0.90;;;0.90;;
18224;SDS011;9237;48.590;8.854;2024-01-30T00:59:56;0.90;;;0.90;;
18224;SDS011;9237;48.590;8.854;2024-01-30T01:02:23;0.97;;;0.97;;
18224;SDS011;9237;48.590;8.854;2024-01-30T01:04:50;1.00;;;1.00;;
18224;SDS011;9237;48.590;8.854;2024-01-30T01:07:16;0.90;;;0.90;;
18224;SDS011;9237;48.590;8.854;2024-01-30T01:09:43;0.90;;;0.90;;
18224;SDS011;9237;48.590;8.854;2024-01-30T01:12:10;1.00;;;1.00;;
18224;SDS011;9237;48.590;8.854;2024-01-30T01:14:37;0.93;;;0.93;;
18224;SDS011;9237;48.590;8.854;2024-01-30T01:17:05;0.90;;;0.90;;
18224;SDS011;9237;48.590;8.854;2024-01-30T01:19:32;1.00;;;1.00;;
18224;SDS011;9237;48.590;8.854;2024-01-30T01:21:58;1.00;;;1.00;;
18224;SDS011;9237;48.590;8.854;2024-01-30T01:24:25;1.00;;;1.00;;
18224;SDS011;9237;48.590;8.854;2024-01-30T01:26:52;1.00;;;1.00;;
18224;SDS011;9237;48.590;8.854;2024-01-30T01:29:19;1.00;;;1.00;;
18224;SDS011;9237;48.590;8.854;2024-01-30T01:31:53;0.90;;;0.90;;
18224;SDS011;9237;48.590;8.854;2024-01-30T01:34:22;1.00;;;1.00;;
18224;SDS011;9237;48.590;8.854;2024-01-30T01:36:49;0.90;;;0.90;;
18224;SDS011;9237;48.590;8.854;2024-01-30T01:39:20;1.10;;;1.10;;
18224;SDS011;9237;48.590;8.854;2024-01-30T01:41:47;1.10;;;1.10;;
18224;SDS011;9237;48.590;8.854;2024-01-30T01:44:14;0.93;;;0.93;;
18224;SDS011;9237;48.590;8.854;2024-01-30T01:46:41;0.90;;;0.90;;
18224;SDS011;9237;48.590;8.854;2024-01-30T01:49:08;1.00;;;1.00;;
18224;SDS011;9237;48.590;8.854;2024-01-30T01:51:36;1.00;;;1.00;;
18224;SDS011;9237;48.590;8.854;2024-01-30T01:54:06;1.00;;;1.00;;
18224;SDS011;9237;48.590;8.854;2024-01-30T01:56:34;0.90;;;0.90;;
18224;SDS011;9237;48.590;8.854;2024-01-30T01:59:04;0.90;;;0.90;;
18224;SDS011;9237;48.590;8.854;2024-01-30T02:01:32;0.90;;;0.90;;
18224;SDS011;9237;48.590;8.854;2024-01-30T02:04:00;0.90;;;0.90;;
18224;SDS011;9237;48.590;8.854;2024-01-30T02:06:27;1.00;;;1.00;;
18224;SDS011;9237;48.590;8.854;2024-01-30T02:08:55;1.00;;;1.00;;
18224;SDS011;9237;48.590;8.854;2024-01-30T02:11:22;0.90;;;0.90;;
18224;SDS011;9237;48.590;8.854;2024-01-30T02:13:50;1.10;;;1.10;;
18224;SDS011;9237;48.590;8.854;2024-01-30T02:16:16;0.90;;;0.90;;
18224;SDS011;9237;48.590;8.854;2024-01-30T02:18:43;1.10;;;1.10;;
18224;SDS011;9237;48.590;8.854;2024-01-30T02:21:14;1.00;;;1.00;;
18224;SDS011;9237;48.590;8.854;2024-01-30T02:23:41;1.00;;;1.00;;
18224;SDS011;9237;48.590;8.854;2024-01-30T02:26:09;1.00;;;1.00;;
18224;SDS011;9237;48.590;8.854;2024-01-30T02:28:36;1.00;;;1.00;;
18224;SDS011;9237;48.590;8.854;2024-01-30T02:31:03;1.00;;;1.00;;
18224;SDS011;9237;48.590;8.854;2024-01-30T02:33:30;1.00;;;1.00;;
18224;SDS011;9237;48.590;8.854;2024-01-30T02:35:57;1.00;;;1.00;;
18224;SDS011;9237;48.590;8.854;2024-01-30T02:38:25;0.90;;;0.90;;
18224;SDS011;9237;48.590;8.854;2024-01-30T02:40:53;1.03;;;1.03;;
18224;SDS011;9237;48.590;8.854;2024-01-30T02:43:20;0.90;;;0.90;;
18224;SDS011;9237;48.590;8.854;2024-01-30T02:45:47;1.00;;;1.00;;
18224;SDS011;9237;48.590;8.854;2024-01-30T02:48:14;1.00;;;1.00;;
18224;SDS011;9237;48.590;8.854;2024-01-30T02:50:40;0.90;;;0.90;;
18224;SDS011;9237;48.590;8.854;2024-01-30T02:53:07;1.00;;;1.00;;
18224;SDS011;9237;48.590;8.854;2024-01-30T02:55:35;0.90;;;0.90;;
18224;SDS011;9237;48.590;8.854;2024-01-30T02:58:02;1.00;;;1.00;;
18224;SDS011;9237;48.590;8.854;2024-01-30T03:00:29;1.00;;;1.00;;
18224;SDS011;9237;48.590;8.854;2024-01-30T03:02:56;1.07;;;1.07;;
18224;SDS011;9237;48.590;8.854;2024-01-30T03:05:23;0.90;;;0.90;;
18224;SDS011;9237;48.590;8.854;2024-01-30T03:07:50;0.90;;;0.90;;
18224;SDS011;9237;48.590;8.854;2024-01-30T03:10:16;1.10;;;1.10;;
18224;SDS011;9237;48.590;8.854;2024-01-30T03:12:45;1.10;;;1.10;;
18224;SDS011;9237;48.590;8.854;2024-01-30T03:15:11;0.90;;;0.90;;
18224;SDS011;9237;48.590;8.854;2024-01-30T03:17:38;1.10;;;1.10;;
18224;SDS011;9237;48.590;8.854;2024-01-30T03:20:05;1.00;;;1.00;;
18224;SDS011;9237;48.590;8.854;2024-01-30T03:22:34;1.00;;;1.00;;
18224;SDS011;9237;48.590;8.854;2024-01-30T03:25:01;0.93;;;0.93;;
18224;SDS011;9237;48.590;8.854;2024-01-30T03:27:27;1.20;;;1.20;;
18224;SDS011;9237;48.590;8.854;2024-01-30T03:29:56;1.00;;;1.00;;
18224;SDS011;9237;48.590;8.854;2024-01-30T03:32:23;1.00;;;1.00;;
18224;SDS011;9237;48.590;8.854;2024-01-30T03:34:49;1.00;;;1.00;;
18224;SDS011;9237;48.590;8.854;2024-01-30T03:37:16;1.10;;;1.10;;
18224;SDS011;9237;48.590;8.854;2024-01-30T03:39:43;1.10;;;1.10;;
18224;SDS011;9237;48.590;8.854;2024-01-30T03:42:10;0.90;;;0.90;;
18224;SDS011;9237;48.590;8.854;2024-01-30T03:44:36;1.00;;;1.00;;
18224;SDS011;9237;48.590;8.854;2024-01-30T03:47:04;1.10;;;1.10;;
18224;SDS011;9237;48.590;8.854;2024-01-30T03:49:31;1.10;;;1.10;;
18224;SDS011;9237;48.590;8.854;2024-01-30T03:51:58;1.07;;;1.07;;
18224;SDS011;9237;48.590;8.854;2024-01-30T03:54:25;1.10;;;1.10;;
18224;SDS011;9237;48.590;8.854;2024-01-30T03:56:51;0.93;;;0.93;;
18224;SDS011;9237;48.590;8.854;2024-01-30T03:59:18;1.10;;;1.10;;
18224;SDS011;9237;48.590;8.854;2024-01-30T04:01:49;1.00;;;1.00;;
18224;SDS011;9237;48.590;8.854;2024-01-30T04:04:17;1.10;;;1.10;;
18224;SDS011;9237;48.590;8.854;2024-01-30T04:06:44;1.13;;;1.13;;
18224;SDS011;9237;48.590;8.854;2024-01-30T04:09:10;0.90;;;0.90;;
18224;SDS011;9237;48.590;8.854;2024-01-30T04:11:38;1.10;;;1.10;;
18224;SDS011;9237;48.590;8.854;2024-01-30T04:14:05;1.10;;;1.10;;
18224;SDS011;9237;48.590;8.854;2024-01-30T04:16:31;1.07;;;1.07;;
18224;SDS011;9237;48.590;8.854;2024-01-30T04:18:58;1.00;;;1.00;;
18224;SDS011;9237;48.590;8.854;2024-01-30T04:21:26;1.03;;;1.03;;
18224;SDS011;9237;48.590;8.854;2024-01-30T04:23:53;0.90;;;0.90;;
18224;SDS011;9237;48.590;8.854;2024-01-30T04:26:20;1.00;;;1.00;;
18224;SDS011;9237;48.590;8.854;2024-01-30T04:28:47;1.10;;;1.10;;
18224;SDS011;9237;48.590;8.854;2024-01-30T04:31:13;1.03;;;1.03;;
18224;SDS011;9237;48.590;8.854;2024-01-30T04:33:40;1.10;;;1.10;;
18224;SDS011;9237;48.590;8.854;2024-01-30T04:36:08;1.10;;;1.10;;
18224;SDS011;9237;48.590;8.854;2024-01-30T04:38:37;1.00;;;1.00;;
18224;SDS011;9237;48.590;8.854;2024-01-30T04:41:03;1.00;;;1.00;;
18224;SDS011;9237;48.590;8.854;2024-01-30T04:43:30;0.97;;;0.97;;
18224;SDS011;9237;48.590;8.854;2024-01-30T04:45:57;1.07;;;1.07;;
18224;SDS011;9237;48.590;8.854;2024-01-30T04:48:23;1.03;;;1.03;;
18224;SDS011;9237;48.590;8.854;2024-01-30T04:50:50;1.10;;;1.10;;
18224;SDS011;9237;48.590;8.854;2024-01-30T04:53:17;0.90;;;0.90;;
18224;SDS011;9237;48.590;8.854;2024-01-30T04:55:45;1.00;;;1.00;;
18224;SDS011;9237;48.590;8.854;2024-01-30T04:58:12;1.10;;;1.10;;
18224;SDS011;9237;48.590;8.854;2024-01-30T05:00:39;0.90;;;0.90;;
18224;SDS011;9237;48.590;8.854;2024-01-30T05:03:05;1.10;;;1.10;;
18224;SDS011;9237;48.590;8.854;2024-01-30T05:05:32;0.90;;;0.90;;
18224;SDS011;9237;48.590;8.854;2024-01-30T05:07:59;1.00;;;1.00;;
18224;SDS011;9237;48.590;8.854;2024-01-30T05:10:26;1.10;;;1.10;;
18224;SDS011;9237;48.590;8.854;2024-01-30T05:12:55;1.10;;;1.10;;
18224;SDS011;9237;48.590;8.854;2024-01-30T05:15:21;1.10;;;1.10;;
18224;SDS011;9237;48.590;8.854;2024-01-30T05:17:48;0.93;;;0.93;;
18224;SDS011;9237;48.590;8.854;2024-01-30T05:20:16;1.00;;;1.00;;
18224;SDS011;9237;48.590;8.854;2024-01-30T05:22:43;1.00;;;1.00;;
18224;SDS011;9237;48.590;8.854;2024-01-30T05:25:10;1.00;;;1.00;;
18224;SDS011;9237;48.590;8.854;2024-01-30T05:27:38;0.93;;;0.93;;
18224;SDS011;9237;48.590;8.854;2024-01-30T05:30:06;1.00;;;1.00;;
18224;SDS011;9237;48.590;8.854;2024-01-30T05:32:34;1.10;;;1.10;;
18224;SDS011;9237;48.590;8.854;2024-01-30T05:35:01;1.10;;;1.10;;
18224;SDS011;9237;48.590;8.854;2024-01-30T05:37:28;1.10;;;1.10;;
18224;SDS011;9237;48.590;8.854;2024-01-30T05:39:54;1.10;;;1.10;;
18224;SDS011;9237;48.590;8.854;2024-01-30T05:42:21;1.00;;;1.00;;
18224;SDS011;9237;48.590;8.854;2024-01-30T05:44:48;1.10;;;1.10;;
18224;SDS011;9237;48.590;8.854;2024-01-30T05:47:16;1.00;;;1.00;;
18224;SDS011;9237;48.590;8.854;2024-01-30T05:49:43;1.00;;;1.00;;
18224;SDS011;9237;48.590;8.854;2024-01-30T05:52:09;1.10;;;1.10;;
18224;SDS011;9237;48.590;8.854;2024-01-30T05:54:36;1.00;;;1.00;;
18224;SDS011;9237;48.590;8.854;2024-01-30T05:57:03;1.20;;;1.20;;
18224;SDS011;9237;48.590;8.854;2024-01-30T05:59:30;1.00;;;1.00;;
18224;SDS011;9237;48.590;8.854;2024-01-30T06:01:57;1.00;;;1.00;;
18224;SDS011;9237;48.590;8.854;2024-01-30T06:04:26;1.00;;;1.00;;
18224;SDS011;9237;48.590;8.854;2024-01-30T06:06:56;1.00;;;1.00;;
18224;SDS011;9237;48.590;8.854;2024-01-30T06:09:27;1.00;;;1.00;;
18224;SDS011;9237;48.590;8.854;2024-01-30T06:11:57;1.00;;;1.00;;
18224;SDS011;9237;48.590;8.854;2024-01-30T06:14:26;1.03;;;1.03;;
18224;SDS011;9237;48.590;8.854;2024-01-30T06:16:58;1.10;;;1.10;;
18224;SDS011;9237;48.590;8.854;2024-01-30T06:19:27;1.10;;;1.10;;
18224;SDS011;9237;48.590;8.854;2024-01-30T06:21:55;0.90;;;0.90;;
18224;SDS011;9237;48.590;8.854;2024-01-30T06:24:31;1.00;;;1.00;;
18224;SDS011;9237;48.590;8.854;2024-01-30T06:26:58;0.90;;;0.90;;
18224;SDS011;9237;48.590;8.854;2024-01-30T06:29:26;1.10;;;1.10;;
18224;SDS011;9237;48.590;8.854;2024-01-30T06:31:54;0.87;;;0.87;;
18224;SDS011;9237;48.590;8.854;2024-01-30T06:34:21;1.00;;;1.00;;
18224;SDS011;9237;48.590;8.854;2024-01-30T06:36:52;1.10;;;1.10;;
18224;SDS011;9237;48.590;8.854;2024-01-30T06:39:19;1.00;;;1.00;;
18224;SDS011;9237;48.590;8.854;2024-01-30T06:41:48;1.00;;;1.00;;
18224;SDS011;9237;48.590;8.854;2024-01-30T06:44:16;1.00;;;1.00;;
18224;SDS011;9237;48.590;8.854;2024-01-30T06:46:46;1.00;;;1.00;;
18224;SDS011;9237;48.590;8.854;2024-01-30T06:49:13;1.00;;;1.00;;
18224;SDS011;9237;48.590;8.854;2024-01-30T06:51:50;1.00;;;1.00;;
18224;SDS011;9237;48.590;8.854;2024-01-30T06:54:23;1.10;;;1.10;;
18224;SDS011;9237;48.590;8.854;2024-01-30T06:56:51;1.00;;;1.00;;
18224;SDS011;9237;48.590;8.854;2024-01-30T06:59:18;1.07;;;1.07;;
18224;SDS011;9237;48.590;8.854;2024-01-30T07:01:46;1.00;;;1.00;;
18224;SDS011;9237;48.590;8.854;2024-01-30T07:04:15;1.00;;;1.00;;
18224;SDS011;9237;48.590;8.854;2024-01-30T07:06:51;0.90;;;0.90;;
18224;SDS011;9237;48.590;8.854;2024-01-30T07:09:19;1.00;;;1.00;;
18224;SDS011;9237;48.590;8.854;2024-01-30T07:11:50;1.10;;;1.10;;
18224;SDS011;9237;48.590;8.854;2024-01-30T07:14:20;1.00;;;1.00;;
18224;SDS011;9237;48.590;8.854;2024-01-30T07:16:51;1.03;;;1.03;;
18224;SDS011;9237;48.590;8.854;2024-01-30T07:19:18;0.90;;;0.90;;
18224;SDS011;9237;48.590;8.854;2024-01-30T07:21:45;1.07;;;1.07;;
18224;SDS011;9237;48.590;8.854;2024-01-30T07:24:16;1.00;;;1.00;;
18224;SDS011;9237;48.590;8.854;2024-01-30T07:26:43;0.90;;;0.90;;
18224;SDS011;9237;48.590;8.854;2024-01-30T07:29:11;0.93;;;0.93;;
18224;SDS011;9237;48.590;8.854;2024-01-30T07:31:38;0.90;;;0.90;;
18224;SDS011;9237;48.590;8.854;2024-01-30T07:34:06;1.00;;;1.00;;
18224;SDS011;9237;48.590;8.854;2024-01-30T07:36:34;1.00;;;1.00;;
18224;SDS011;9237;48.590;8.854;2024-01-30T07:39:04;1.00;;;1.00;;
18224;SDS011;9237;48.590;8.854;2024-01-30T07:41:37;0.90;;;0.90;;
18224;SDS011;9237;48.590;8.854;2024-01-30T07:44:07;1.00;;;1.00;;
18224;SDS011;9237;48.590;8.854;2024-01-30T07:46:34;1.00;;;1.00;;
18224;SDS011;9237;48.590;8.854;2024-01-30T07:49:02;1.00;;;1.00;;
18224;SDS011;9237;48.590;8.854;2024-01-30T07:51:34;0.97;;;0.97;;
18224;SDS011;9237;48.590;8.854;2024-01-30T07:54:05;0.93;;;0.93;;
18224;SDS011;9237;48.590;8.854;2024-01-30T07:56:37;0.90;;;0.90;;
18224;SDS011;9237;48.590;8.854;2024-01-30T07:59:11;1.00;;;1.00;;
18224;SDS011;9237;48.590;8.854;2024-01-30T08:01:39;0.80;;;0.80;;
18224;SDS011;9237;48.590;8.854;2024-01-30T08:04:10;1.00;;;1.00;;
18224;SDS011;9237;48.590;8.854;2024-01-30T08:06:37;0.80;;;0.80;;
18224;SDS011;9237;48.590;8.854;2024-01-30T08:09:07;1.00;;;1.00;;
18224;SDS011;9237;48.590;8.854;2024-01-30T08:11:37;0.90;;;0.90;;
18224;SDS011;9237;48.590;8.854;2024-01-30T08:14:04;0.90;;;0.90;;
18224;SDS011;9237;48.590;8.854;2024-01-30T08:16:34;0.83;;;0.83;;
18224;SDS011;9237;48.590;8.854;2024-01-30T08:19:01;0.90;;;0.90;;
18224;SDS011;9237;48.590;8.854;2024-01-30T08:21:29;1.00;;;1.00;;
18224;SDS011;9237;48.590;8.854;2024-01-30T08:24:01;0.90;;;0.90;;
18224;SDS011;9237;48.590;8.854;2024-01-30T08:26:28;0.80;;;0.80;;
18224;SDS011;9237;48.590;8.854;2024-01-30T08:28:56;0.80;;;0.80;;
18224;SDS011;9237;48.590;8.854;2024-01-30T08:31:23;0.80;;;0.80;;
18224;SDS011;9237;48.590;8.854;2024-01-30T08:33:50;0.97;;;0.97;;
18224;SDS011;9237;48.590;8.854;2024-01-30T08:36:17;0.80;;;0.80;;
18224;SDS011;9237;48.590;8.854;2024-01-30T08:38:44;0.90;;;0.90;;
18224;SDS011;9237;48.590;8.854;2024-01-30T08:41:11;0.90;;;0.90;;
18224;SDS011;9237;48.590;8.854;2024-01-30T08:43:37;1.00;;;1.00;;
18224;SDS011;9237;48.590;8.854;2024-01-30T08:46:06;0.90;;;0.90;;
18224;SDS011;9237;48.590;8.854;2024-01-30T08:48:32;0.90;;;0.90;;
18224;SDS011;9237;48.590;8.854;2024-01-30T08:50:59;0.90;;;0.90;;
18224;SDS011;9237;48.590;8.854;2024-01-30T08:53:26;0.90;;;0.90;;
18224;SDS011;9237;48.590;8.854;2024-01-30T08:55:53;0.90;;;0.90;;
18224;SDS011;9237;48.590;8.854;2024-01-30T08:58:19;0.80;;;0.80;;
18224;SDS011;9237;48.590;8.854;2024-01-30T09:00:46;0.93;;;0.93;;
18224;SDS011;9237;48.590;8.854;2024-01-30T09:03:14;0.80;;;0.80;;
18224;SDS011;9237;48.590;8.854;2024-01-30T09:05:41;0.80;;;0.80;;
18224;SDS011;9237;48.590;8.854;2024-01-30T09:08:08;1.00;;;1.00;;
18224;SDS011;9237;48.590;8.854;2024-01-30T09:10:35;0.80;;;0.80;;
18224;SDS011;9237;48.590;8.854;2024-01-30T09:13:02;1.00;;;1.00;;
18224;SDS011;9237;48.590;8.854;2024-01-30T09:15:29;0.90;;;0.90;;
18224;SDS011;9237;48.590;8.854;2024-01-30T09:17:56;0.90;;;0.90;;
18224;SDS011;9237;48.590;8.854;2024-01-30T09:20:24;0.70;;;0.70;;
18224;SDS011;9237;48.590;8.854;2024-01-30T09:22:51;0.90;;;0.90;;
18224;SDS011;9237;48.590;8.854;2024-01-30T09:25:18;0.80;;;0.80;;
18224;SDS011;9237;48.590;8.854;2024-01-30T09:27:45;0.90;;;0.90;;
18224;SDS011;9237;48.590;8.854;2024-01-30T09:30:12;0.90;;;0.90;;
18224;SDS011;9237;48.590;8.854;2024-01-30T09:32:39;0.80;;;0.80;;
18224;SDS011;9237;48.590;8.854;2024-01-30T09:35:06;0.80;;;0.80;;
18224;SDS011;9237;48.590;8.854;2024-01-30T09:37:35;0.80;;;0.80;;
18224;SDS011;9237;48.590;8.854;2024-01-30T09:40:02;0.80;;;0.80;;
18224;SDS011;9237;48.590;8.854;2024-01-30T09:42:33;0.80;;;0.80;;
18224;SDS011;9237;48.590;8.854;2024-01-30T09:45:01;0.80;;;0.80;;
18224;SDS011;9237;48.590;8.854;2024-01-30T09:47:30;0.80;;;0.80;;
18224;SDS011;9237;48.590;8.854;2024-01-30T09:49:58;0.90;;;0.90;;
18224;SDS011;9237;48.590;8.854;2024-01-30T09:52:27;0.90;;;0.90;;
18224;SDS011;9237;48.590;8.854;2024-01-30T09:54:56;0.90;;;0.90;;
18224;SDS011;9237;48.590;8.854;2024-01-30T09:57:25;0.80;;;0.80;;
18224;SDS011;9237;48.590;8.854;2024-01-30T09:59:52;1.00;;;1.00;;
18224;SDS011;9237;48.590;8.854;2024-01-30T10:02:19;1.00;;;1.00;;
18224;SDS011;9237;48.590;8.854;2024-01-30T10:04:46;0.90;;;0.90;;
18224;SDS011;9237;48.590;8.854;2024-01-30T10:07:14;0.90;;;0.90;;
18224;SDS011;9237;48.590;8.854;2024-01-30T10:09:41;0.90;;;0.90;;
18224;SDS011;9237;48.590;8.854;2024-01-30T10:12:09;0.80;;;0.80;;
18224;SDS011;9237;48.590;8.854;2024-01-30T10:14:37;1.00;;;1.00;;
18224;SDS011;9237;48.590;8.854;2024-01-30T10:17:04;1.00;;;1.00;;
18224;SDS011;9237;48.590;8.854;2024-01-30T10:19:31;0.90;;;0.90;;
18224;SDS011;9237;48.590;8.854;2024-01-30T10:21:59;0.80;;;0.80;;
18224;SDS011;9237;48.590;8.854;2024-01-30T10:24:26;0.80;;;0.80;;
18224;SDS011;9237;48.590;8.854;2024-01-30T10:26:54;0.80;;;0.80;;
18224;SDS011;9237;48.590;8.854;2024-01-30T10:29:22;0.90;;;0.90;;
18224;SDS011;9237;48.590;8.854;2024-01-30T10:31:57;0.80;;;0.80;;
18224;SDS011;9237;48.590;8.854;2024-01-30T10:34:25;0.70;;;0.70;;
18224;SDS011;9237;48.590;8.854;2024-01-30T10:36:54;0.70;;;0.70;;
18224;SDS011;9237;48.590;8.854;2024-01-30T10:39:26;0.87;;;0.87;;
18224;SDS011;9237;48.590;8.854;2024-01-30T10:41:58;0.90;;;0.90;;
18224;SDS011;9237;48.590;8.854;2024-01-30T10:44:33;0.80;;;0.80;;
18224;SDS011;9237;48.590;8.854;2024-01-30T10:47:03;0.90;;;0.90;;
18224;SDS011;9237;48.590;8.854;2024-01-30T10:49:34;0.90;;;0.90;;
18224;SDS011;9237;48.590;8.854;2024-01-30T10:52:01;0.73;;;0.73;;
18224;SDS011;9237;48.590;8.854;2024-01-30T10:54:30;0.83;;;0.83;;
18224;SDS011;9237;48.590;8.854;2024-01-30T10:56:59;0.80;;;0.80;;
18224;SDS011;9237;48.590;8.854;2024-01-30T10:59:28;0.80;;;0.80;;
18224;SDS011;9237;48.590;8.854;2024-01-30T11:01:58;0.70;;;0.70;;
18224;SDS011;9237;48.590;8.854;2024-01-30T11:04:25;0.80;;;0.80;;
18224;SDS011;9237;48.590;8.854;2024-01-30T11:06:52;0.80;;;0.80;;
18224;SDS011;9237;48.590;8.854;2024-01-30T11:09:20;0.80;;;0.80;;
18224;SDS011;9237;48.590;8.854;2024-01-30T11:11:50;0.90;;;0.90;;
18224;SDS011;9237;48.590;8.854;2024-01-30T11:14:22;0.80;;;0.80;;
18224;SDS011;9237;48.590;8.854;2024-01-30T11:16:51;0.80;;;0.80;;
18224;SDS011;9237;48.590;8.854;2024-01-30T11:19:24;0.80;;;0.80;;
18224;SDS011;9237;48.590;8.854;2024-01-30T11:21:52;0.70;;;0.70;;
18224;SDS011;9237;48.590;8.854;2024-01-30T11:24:21;0.80;;;0.80;;
18224;SDS011;9237;48.590;8.854;2024-01-30T11:26:48;0.70;;;0.70;;
18224;SDS011;9237;48.590;8.854;2024-01-30T11:29:16;0.70;;;0.70;;
18224;SDS011;9237;48.590;8.854;2024-01-30T11:31:52;0.70;;;0.70;;
18224;SDS011;9237;48.590;8.854;2024-01-30T11:34:20;0.70;;;0.70;;
18224;SDS011;9237;48.590;8.854;2024-01-30T11:36:48;0.70;;;0.70;;
18224;SDS011;9237;48.590;8.854;2024-01-30T11:39:20;0.70;;;0.70;;
18224;SDS011;9237;48.590;8.854;2024-01-30T11:41:47;0.80;;;0.80;;
18224;SDS011;9237;48.590;8.854;2024-01-30T11:44:16;0.70;;;0.70;;
18224;SDS011;9237;48.590;8.854;2024-01-30T11:46:45;0.70;;;0.70;;
18224;SDS011;9237;48.590;8.854;2024-01-30T11:49:13;0.70;;;0.70;;
18224;SDS011;9237;48.590;8.854;2024-01-30T11:51:40;0.70;;;0.70;;
18224;SDS011;9237;48.590;8.854;2024-01-30T11:54:08;0.70;;;0.70;;
18224;SDS011;9237;48.590;8.854;2024-01-30T11:56:36;0.70;;;0.70;;
18224;SDS011;9237;48.590;8.854;2024-01-30T11:59:03;0.70;;;0.70;;
18224;SDS011;9237;48.590;8.854;2024-01-30T12:01:30;0.70;;;0.70;;
18224;SDS011;9237;48.590;8.854;2024-01-30T12:03:58;0.70;;;0.70;;
18224;SDS011;9237;48.590;8.854;2024-01-30T12:06:26;0.70;;;0.70;;
18224;SDS011;9237;48.590;8.854;2024-01-30T12:09:00;0.70;;;0.70;;
18224;SDS011;9237;48.590;8.854;2024-01-30T12:11:29;0.70;;;0.70;;
18224;SDS011;9237;48.590;8.854;2024-01-30T12:13:56;0.60;;;0.60;;
18224;SDS011;9237;48.590;8.854;2024-01-30T12:16:23;0.70;;;0.70;;
18224;SDS011;9237;48.590;8.854;2024-01-30T12:18:58;0.80;;;0.80;;
18224;SDS011;9237;48.590;8.854;2024-01-30T12:21:28;0.70;;;0.70;;
18224;SDS011;9237;48.590;8.854;2024-01-30T12:23:55;0.70;;;0.70;;
18224;SDS011;9237;48.590;8.854;2024-01-30T12:26:23;0.80;;;0.80;;
18224;SDS011;9237;48.590;8.854;2024-01-30T12:28:50;0.70;;;0.70;;
18224;SDS011;9237;48.590;8.854;2024-01-30T12:31:24;0.70;;;0.70;;
18224;SDS011;9237;48.590;8.854;2024-01-30T12:33:52;0.70;;;0.70;;
18224;SDS011;9237;48.590;8.854;2024-01-30T12:36:18;0.70;;;0.70;;
18224;SDS011;9237;48.590;8.854;2024-01-30T12:38:47;0.70;;;0.70;;
18224;SDS011;9237;48.590;8.854;2024-01-30T12:41:13;0.70;;;0.70;;
18224;SDS011;9237;48.590;8.854;2024-01-30T12:43:40;0.70;;;0.70;;
18224;SDS011;9237;48.590;8.854;2024-01-30T12:46:07;0.70;;;0.70;;
18224;SDS011;9237;48.590;8.854;2024-01-30T12:48:34;0.70;;;0.70;;
18224;SDS011;9237;48.590;8.854;2024-01-30T12:51:01;0.70;;;0.70;;
18224;SDS011;9237;48.590;8.854;2024-01-30T12:53:28;0.70;;;0.70;;
18224;SDS011;9237;48.590;8.854;2024-01-30T12:55:56;0.70;;;0.70;;
18224;SDS011;9237;48.590;8.854;2024-01-30T12:58:23;0.67;;;0.67;;
18224;SDS011;9237;48.590;8.854;2024-01-30T13:00:49;0.70;;;0.70;;
18224;SDS011;9237;48.590;8.854;2024-01-30T13:03:16;0.70;;;0.70;;
18224;SDS011;9237;48.590;8.854;2024-01-30T13:05:43;0.70;;;0.70;;
18224;SDS011;9237;48.590;8.854;2024-01-30T13:08:10;0.70;;;0.70;;
18224;SDS011;9237;48.590;8.854;2024-01-30T13:10:37;0.80;;;0.80;;
18224;SDS011;9237;48.590;8.854;2024-01-30T13:13:05;0.80;;;0.80;;
18224;SDS011;9237;48.590;8.854;2024-01-30T13:15:31;0.70;;;0.70;;
18224;SDS011;9237;48.590;8.854;2024-01-30T13:17:58;0.80;;;0.80;;
18224;SDS011;9237;48.590;8.854;2024-01-30T13:20:25;0.70;;;0.70;;
18224;SDS011;9237;48.590;8.854;2024-01-30T13:22:52;0.70;;;0.70;;
18224;SDS011;9237;48.590;8.854;2024-01-30T13:25:18;0.70;;;0.70;;
18224;SDS011;9237;48.590;8.854;2024-01-30T13:27:45;0.70;;;0.70;;
18224;SDS011;9237;48.590;8.854;2024-01-30T13:30:13;0.60;;;0.60;;
18224;SDS011;9237;48.590;8.854;2024-01-30T13:32:40;0.70;;;0.70;;
18224;SDS011;9237;48.590;8.854;2024-01-30T13:35:09;0.70;;;0.70;;
18224;SDS011;9237;48.590;8.854;2024-01-30T13:37:35;0.70;;;0.70;;
18224;SDS011;9237;48.590;8.854;2024-01-30T13:40:02;0.70;;;0.70;;
18224;SDS011;9237;48.590;8.854;2024-01-30T13:42:32;0.70;;;0.70;;
18224;SDS011;9237;48.590;8.854;2024-01-30T13:44:58;0.70;;;0.70;;
18224;SDS011;9237;48.590;8.854;2024-01-30T13:47:26;0.70;;;0.70;;
18224;SDS011;9237;48.590;8.854;2024-01-30T13:49:53;0.70;;;0.70;;
18224;SDS011;9237;48.590;8.854;2024-01-30T13:52:20;0.70;;;0.70;;
18224;SDS011;9237;48.590;8.854;2024-01-30T13:54:47;0.70;;;0.70;;
18224;SDS011;9237;48.590;8.854;2024-01-30T13:57:14;0.70;;;0.70;;
18224;SDS011;9237;48.590;8.854;2024-01-30T13:59:40;0.80;;;0.80;;
18224;SDS011;9237;48.590;8.854;2024-01-30T14:02:07;0.70;;;0.70;;
18224;SDS011;9237;48.590;8.854;2024-01-30T14:04:36;0.80;;;0.80;;
18224;SDS011;9237;48.590;8.854;2024-01-30T14:07:03;0.70;;;0.70;;
18224;SDS011;9237;48.590;8.854;2024-01-30T14:09:31;0.70;;;0.70;;
18224;SDS011;9237;48.590;8.854;2024-01-30T14:11:59;0.80;;;0.80;;
18224;SDS011;9237;48.590;8.854;2024-01-30T14:14:26;0.70;;;0.70;;
18224;SDS011;9237;48.590;8.854;2024-01-30T14:16:52;0.70;;;0.70;;
18224;SDS011;9237;48.590;8.854;2024-01-30T14:19:19;0.80;;;0.80;;
18224;SDS011;9237;48.590;8.854;2024-01-30T14:21:48;0.70;;;0.70;;
18224;SDS011;9237;48.590;8.854;2024-01-30T14:24:14;0.80;;;0.80;;
18224;SDS011;9237;48.590;8.854;2024-01-30T14:26:41;0.70;;;0.70;;
18224;SDS011;9237;48.590;8.854;2024-01-30T14:29:09;0.70;;;0.70;;
18224;SDS011;9237;48.590;8.854;2024-01-30T14:31:36;0.60;;;0.60;;
18224;SDS011;9237;48.590;8.854;2024-01-30T14:34:03;0.70;;;0.70;;
18224;SDS011;9237;48.590;8.854;2024-01-30T14:36:29;0.70;;;0.70;;
18224;SDS011;9237;48.590;8.854;2024-01-30T14:38:58;0.70;;;0.70;;
18224;SDS011;9237;48.590;8.854;2024-01-30T14:41:24;0.63;;;0.63;;
18224;SDS011;9237;48.590;8.854;2024-01-30T14:43:51;0.70;;;0.70;;
18224;SDS011;9237;48.590;8.854;2024-01-30T14:46:18;0.77;;;0.77;;
18224;SDS011;9237;48.590;8.854;2024-01-30T14:48:45;0.70;;;0.70;;
18224;SDS011;9237;48.590;8.854;2024-01-30T14:51:11;0.70;;;0.70;;
18224;SDS011;9237;48.590;8.854;2024-01-30T14:53:38;0.60;;;0.60;;
18224;SDS011;9237;48.590;8.854;2024-01-30T14:56:07;0.70;;;0.70;;
18224;SDS011;9237;48.590;8.854;2024-01-30T14:58:34;0.70;;;0.70;;
18224;SDS011;9237;48.590;8.854;2024-01-30T15:01:01;0.70;;;0.70;;
18224;SDS011;9237;48.590;8.854;2024-01-30T15:03:28;0.80;;;0.80;;